createdAt,value
2022-12-23T00:00:40.732Z,33.37
2022-12-23T00:03:22.830Z,37.77
2022-12-23T00:05:50.628Z,38.27
2022-12-23T00:08:17.927Z,35.97
2022-12-23T00:10:45.129Z,37.37
2022-12-23T00:13:31.856Z,37.73
2022-12-23T00:16:03.018Z,35.87
2022-12-23T00:18:30.416Z,36.80
2022-12-23T00:21:08.244Z,40.77
2022-12-23T00:23:38.828Z,33.27
2022-12-23T00:26:06.410Z,38.77
2022-12-23T00:28:34.094Z,35.67
2022-12-23T00:31:03.401Z,30.43
2022-12-23T00:33:36.335Z,34.20
2022-12-23T00:36:10.478Z,39.53
2022-12-23T00:38:56.546Z,35.93
2022-12-23T00:41:42.346Z,37.73
2022-12-23T00:44:09.579Z,37.77
2022-12-23T00:46:36.725Z,32.23
2022-12-23T00:49:22.825Z,38.23
2022-12-23T00:51:50.203Z,35.00
2022-12-23T00:54:17.815Z,37.33
2022-12-23T00:56:45.073Z,37.53
2022-12-23T00:59:12.473Z,39.63
2022-12-23T01:01:58.548Z,38.50
2022-12-23T01:04:44.537Z,38.80
2022-12-23T01:07:11.668Z,40.70
2022-12-23T01:09:39.032Z,35.00
2022-12-23T01:12:06.570Z,47.97
2022-12-23T01:14:34.531Z,44.77
2022-12-23T01:17:01.870Z,42.20
2022-12-23T01:19:29.209Z,39.00
2022-12-23T01:21:56.184Z,39.77
2022-12-23T01:24:23.963Z,42.97
2022-12-23T01:26:51.466Z,39.67
2022-12-23T01:29:18.695Z,42.07
2022-12-23T01:31:45.733Z,40.57
2022-12-23T01:34:13.028Z,34.90
2022-12-23T01:36:40.013Z,39.13
2022-12-23T01:39:07.316Z,43.83
2022-12-23T01:41:53.627Z,40.63
2022-12-23T01:44:48.908Z,36.47
2022-12-23T01:47:27.462Z,44.23
2022-12-23T01:50:00.202Z,43.47
2022-12-23T01:52:27.779Z,44.27
2022-12-23T01:54:56.044Z,48.17
2022-12-23T01:57:23.607Z,41.80
2022-12-23T02:00:09.689Z,45.40
2022-12-23T02:02:56.407Z,45.77
2022-12-23T02:05:24.479Z,41.97
2022-12-23T02:08:12.358Z,37.33
2022-12-23T02:11:07.474Z,41.07
2022-12-23T02:14:04.942Z,42.37
2022-12-23T02:16:37.722Z,44.43
2022-12-23T02:19:17.723Z,41.30
2022-12-23T02:22:13.948Z,44.70
2022-12-23T02:25:08.025Z,38.77
2022-12-23T02:28:10.205Z,43.03
2022-12-23T02:31:10.675Z,39.20
2022-12-23T02:33:56.778Z,39.93
2022-12-23T02:36:35.878Z,42.90
2022-12-23T02:39:11.620Z,42.67
2022-12-23T02:41:50.769Z,38.23
2022-12-23T02:44:29.768Z,43.40
2022-12-23T02:47:05.847Z,39.37
2022-12-23T02:49:36.764Z,40.27
2022-12-23T02:52:10.397Z,43.60
2022-12-23T02:54:45.609Z,32.50
2022-12-23T02:57:15.021Z,43.17
2022-12-23T02:59:47.055Z,45.40
2022-12-23T03:02:14.423Z,38.53
2022-12-23T03:04:42.348Z,37.20
2022-12-23T03:07:38.834Z,32.77
2022-12-23T03:10:21.476Z,35.30
2022-12-23T03:12:57.648Z,35.20
2022-12-23T03:15:25.094Z,31.90
2022-12-23T03:18:05.280Z,40.90
2022-12-23T03:21:05.361Z,37.80
2022-12-23T03:23:46.317Z,35.63
2022-12-23T03:26:20.963Z,41.87
2022-12-23T03:29:33.590Z,38.63
2022-12-23T03:32:02.962Z,37.77
2022-12-23T03:34:34.285Z,38.57
2022-12-23T03:37:04.969Z,42.30
2022-12-23T03:39:50.106Z,43.23
2022-12-23T03:42:28.520Z,45.73
2022-12-23T03:45:36.449Z,40.73
2022-12-23T03:48:03.011Z,44.57
2022-12-23T03:50:32.002Z,43.20
2022-12-23T03:53:28.725Z,39.43
2022-12-23T03:56:10.314Z,39.57
2022-12-23T03:58:59.616Z,40.33
2022-12-23T04:01:52.875Z,41.57
2022-12-23T04:04:38.363Z,40.00
2022-12-23T04:07:19.390Z,44.77
2022-12-23T04:09:47.865Z,37.10
2022-12-23T04:12:15.300Z,38.43
2022-12-23T04:14:49.415Z,38.93
2022-12-23T04:17:17.352Z,39.57
2022-12-23T04:19:48.441Z,36.13
2022-12-23T04:22:16.670Z,36.57
2022-12-23T04:24:44.543Z,34.97
2022-12-23T04:27:14.187Z,33.77
2022-12-23T04:29:41.790Z,38.47
2022-12-23T04:32:09.523Z,37.03
2022-12-23T04:34:36.887Z,33.80
2022-12-23T04:37:03.905Z,33.07
2022-12-23T04:39:31.125Z,38.17
2022-12-23T04:41:58.093Z,34.07
2022-12-23T04:44:25.286Z,34.27
2022-12-23T04:46:52.342Z,36.03
2022-12-23T04:49:19.640Z,38.03
2022-12-23T04:51:46.668Z,36.80
2022-12-23T04:54:14.319Z,33.50
2022-12-23T04:56:41.265Z,36.03
2022-12-23T04:59:09.743Z,40.83
2022-12-23T05:01:36.786Z,35.13
2022-12-23T05:04:04.219Z,36.30
2022-12-23T05:06:31.163Z,34.27
2022-12-23T05:08:58.383Z,39.13
2022-12-23T05:11:25.348Z,41.60
2022-12-23T05:13:52.556Z,32.87
2022-12-23T05:16:19.741Z,36.17
2022-12-23T05:18:47.430Z,35.07
2022-12-23T05:21:15.066Z,32.57
2022-12-23T05:23:42.279Z,33.50
2022-12-23T05:26:09.497Z,38.70
2022-12-23T05:28:37.022Z,34.23
2022-12-23T05:31:06.762Z,34.73
2022-12-23T05:33:35.167Z,38.37
2022-12-23T05:36:02.223Z,33.53
2022-12-23T05:38:29.581Z,34.93
2022-12-23T05:40:56.688Z,31.93
2022-12-23T05:43:24.468Z,36.73
2022-12-23T05:45:52.090Z,37.93
2022-12-23T05:48:19.423Z,36.40
2022-12-23T05:50:49.849Z,32.33
2022-12-23T05:53:17.787Z,34.83
2022-12-23T05:55:45.100Z,35.00
2022-12-23T05:58:12.431Z,42.43
2022-12-23T06:00:39.582Z,36.57
2022-12-23T06:03:07.761Z,33.30
2022-12-23T06:05:37.776Z,32.67
2022-12-23T06:08:05.368Z,35.27
2022-12-23T06:10:32.325Z,31.83
2022-12-23T06:12:59.615Z,31.37
2022-12-23T06:15:27.558Z,30.87
2022-12-23T06:17:56.315Z,29.53
2022-12-23T06:20:23.268Z,30.73
2022-12-23T06:22:50.511Z,33.80
2022-12-23T06:25:17.603Z,32.40
2022-12-23T06:27:44.901Z,31.20
2022-12-23T06:30:12.752Z,30.50
2022-12-23T06:32:40.071Z,32.80
2022-12-23T06:35:08.324Z,31.10
2022-12-23T06:37:35.688Z,31.10
2022-12-23T06:40:02.833Z,32.87
2022-12-23T06:42:30.095Z,31.67
2022-12-23T06:44:57.060Z,31.47
2022-12-23T06:47:24.296Z,29.20
2022-12-23T06:49:51.263Z,30.10
2022-12-23T06:52:18.537Z,29.73
2022-12-23T06:54:45.498Z,32.23
2022-12-23T06:57:12.718Z,33.37
2022-12-23T06:59:39.694Z,29.63
2022-12-23T07:02:07.164Z,34.00
2022-12-23T07:04:34.319Z,35.67
2022-12-23T07:07:01.522Z,33.33
2022-12-23T07:09:28.556Z,33.13
2022-12-23T07:11:55.808Z,31.57
2022-12-23T07:14:22.832Z,28.87
2022-12-23T07:16:50.139Z,32.27
2022-12-23T07:19:17.110Z,35.07
2022-12-23T07:21:44.310Z,31.50
2022-12-23T07:24:11.311Z,28.93
2022-12-23T07:26:38.606Z,28.70
2022-12-23T07:29:05.538Z,28.77
2022-12-23T07:31:32.828Z,26.67
2022-12-23T07:34:00.048Z,29.27
2022-12-23T07:36:27.307Z,32.13
2022-12-23T07:38:54.252Z,28.07
2022-12-23T07:41:21.478Z,25.23
2022-12-23T07:43:48.487Z,27.43
2022-12-23T07:46:15.980Z,28.83
2022-12-23T07:48:43.307Z,26.97
2022-12-23T07:51:10.624Z,28.17
2022-12-23T07:53:37.678Z,27.60
2022-12-23T07:56:05.535Z,31.03
2022-12-23T07:58:32.469Z,27.47
2022-12-23T08:01:04.587Z,32.63
2022-12-23T08:03:31.759Z,30.37
2022-12-23T08:06:04.591Z,24.07
2022-12-23T08:08:32.339Z,26.77
2022-12-23T08:11:07.979Z,26.83
2022-12-23T08:13:37.533Z,31.47
2022-12-23T08:16:06.239Z,26.70
2022-12-23T08:18:35.665Z,27.10
2022-12-23T08:21:05.953Z,27.70
2022-12-23T08:23:33.724Z,29.67
2022-12-23T08:26:24.921Z,28.43
2022-12-23T08:28:55.284Z,29.20
2022-12-23T08:31:29.181Z,28.97
2022-12-23T08:33:57.295Z,27.93
2022-12-23T08:36:36.034Z,26.20
2022-12-23T08:39:07.548Z,25.83
2022-12-23T08:41:40.195Z,27.43
2022-12-23T08:44:07.740Z,29.67
2022-12-23T08:46:35.805Z,27.07
2022-12-23T08:49:03.246Z,27.43
2022-12-23T08:51:30.983Z,31.10
2022-12-23T08:54:00.900Z,32.43
2022-12-23T08:56:40.968Z,27.97
2022-12-23T08:59:19.107Z,33.20
2022-12-23T09:01:48.860Z,32.07
2022-12-23T09:04:16.010Z,27.13
2022-12-23T09:06:44.498Z,33.13
2022-12-23T09:09:13.113Z,33.53
2022-12-23T09:11:40.536Z,27.87
2022-12-23T09:14:10.659Z,26.17
2022-12-23T09:16:38.235Z,29.23
2022-12-23T09:19:05.439Z,32.67
2022-12-23T09:21:32.717Z,31.53
2022-12-23T09:23:59.644Z,33.00
2022-12-23T09:26:29.800Z,31.10
2022-12-23T09:28:57.493Z,29.80
2022-12-23T09:31:30.494Z,30.73
2022-12-23T09:34:01.288Z,30.07
2022-12-23T09:36:29.922Z,27.27
2022-12-23T09:38:58.101Z,30.03
2022-12-23T09:41:29.092Z,30.60
2022-12-23T09:44:05.048Z,29.33
2022-12-23T09:46:38.371Z,30.53
2022-12-23T09:49:13.091Z,34.07
2022-12-23T09:51:40.383Z,30.60
2022-12-23T09:54:19.573Z,30.17
2022-12-23T09:57:00.483Z,29.13
2022-12-23T09:59:46.227Z,29.23
2022-12-23T10:02:30.656Z,30.73
2022-12-23T10:05:13.979Z,34.10
2022-12-23T10:07:58.322Z,29.67
2022-12-23T10:10:41.068Z,27.83
2022-12-23T10:13:35.684Z,31.13
2022-12-23T10:16:12.434Z,30.40
2022-12-23T10:18:42.739Z,37.33
2022-12-23T10:21:13.068Z,29.63
2022-12-23T10:23:43.876Z,29.57
2022-12-23T10:26:29.942Z,29.23
2022-12-23T10:29:26.594Z,32.03
2022-12-23T10:32:02.746Z,35.37
2022-12-23T10:35:06.573Z,30.73
2022-12-23T10:37:41.712Z,34.77
2022-12-23T10:40:15.056Z,29.20
2022-12-23T10:43:10.712Z,33.03
2022-12-23T10:45:47.302Z,28.20
2022-12-23T10:48:23.075Z,29.63
2022-12-23T10:50:50.282Z,33.90
2022-12-23T10:53:39.287Z,30.40
2022-12-23T10:56:07.442Z,34.07
2022-12-23T10:58:38.409Z,36.67
2022-12-23T11:01:15.084Z,34.50
2022-12-23T11:04:07.629Z,33.20
2022-12-23T11:06:39.511Z,33.47
2022-12-23T11:09:12.209Z,35.07
2022-12-23T11:12:04.116Z,28.90
2022-12-23T11:14:31.004Z,34.53
2022-12-23T11:16:58.341Z,37.30
2022-12-23T11:19:25.301Z,35.27
2022-12-23T11:22:00.711Z,34.60
2022-12-23T11:24:35.376Z,39.10
2022-12-23T11:27:07.977Z,34.97
2022-12-23T11:29:44.217Z,32.77
2022-12-23T11:32:19.198Z,36.93
2022-12-23T11:34:48.076Z,34.57
2022-12-23T11:37:37.119Z,37.83
2022-12-23T11:40:06.559Z,39.83
2022-12-23T11:42:34.862Z,36.50
2022-12-23T11:45:06.604Z,36.23
2022-12-23T11:47:41.059Z,44.73
2022-12-23T11:50:20.720Z,38.17
2022-12-23T11:53:11.000Z,41.27
2022-12-23T11:56:00.904Z,36.43
2022-12-23T11:58:30.212Z,41.27
2022-12-23T12:00:59.574Z,41.17
2022-12-23T12:03:32.010Z,38.80
2022-12-23T12:06:06.869Z,32.30
2022-12-23T12:08:37.871Z,34.83
2022-12-23T12:11:18.842Z,38.43
2022-12-23T12:13:50.187Z,35.40
2022-12-23T12:16:47.472Z,37.50
2022-12-23T12:19:28.795Z,33.83
2022-12-23T12:22:00.665Z,33.60
2022-12-23T12:24:41.227Z,39.57
2022-12-23T12:27:10.928Z,39.13
2022-12-23T12:29:50.784Z,41.77
2022-12-23T12:32:32.985Z,36.03
2022-12-23T12:35:07.921Z,37.67
2022-12-23T12:38:16.550Z,37.57
2022-12-23T12:40:51.131Z,36.60
2022-12-23T12:43:28.834Z,42.03
2022-12-23T12:46:11.923Z,41.93
2022-12-23T12:49:04.435Z,39.20
2022-12-23T12:52:19.416Z,43.03
2022-12-23T12:54:53.577Z,39.80
2022-12-23T12:57:23.098Z,35.33
2022-12-23T12:59:54.866Z,36.50
2022-12-23T13:02:49.450Z,40.07
2022-12-23T13:05:33.810Z,42.70
2022-12-23T13:08:00.999Z,41.20
2022-12-23T13:10:51.769Z,42.23
2022-12-23T13:13:44.726Z,42.83
2022-12-23T13:16:35.267Z,36.70
2022-12-23T13:19:50.258Z,42.23
2022-12-23T13:22:24.136Z,43.20
2022-12-23T13:25:08.760Z,40.27
2022-12-23T13:28:15.313Z,44.13
2022-12-23T13:31:19.749Z,39.40
2022-12-23T13:33:57.629Z,38.60
2022-12-23T13:36:52.274Z,41.77
2022-12-23T13:39:47.113Z,41.17
2022-12-23T13:42:30.112Z,41.67
2022-12-23T13:44:59.343Z,42.87
2022-12-23T13:48:09.810Z,41.30
2022-12-23T13:51:00.371Z,41.60
2022-12-23T13:53:27.593Z,45.57
2022-12-23T13:55:57.714Z,41.17
2022-12-23T13:58:28.143Z,40.43
2022-12-23T14:01:19.546Z,45.00
2022-12-23T14:03:50.765Z,39.27
2022-12-23T14:06:21.031Z,47.37
2022-12-23T14:08:49.794Z,44.07
2022-12-23T14:11:26.313Z,42.40
2022-12-23T14:13:59.355Z,42.80
2022-12-23T14:16:29.064Z,50.60
2022-12-23T14:19:11.467Z,41.83
2022-12-23T14:22:02.823Z,39.87
2022-12-23T14:25:03.902Z,39.57
2022-12-23T14:27:36.855Z,43.13
2022-12-23T14:30:36.456Z,41.73
2022-12-23T14:33:14.763Z,48.17
2022-12-23T14:35:42.833Z,45.80
2022-12-23T14:38:21.149Z,46.13
2022-12-23T14:41:00.796Z,40.57
2022-12-23T14:43:27.823Z,46.10
2022-12-23T14:46:00.753Z,44.23
2022-12-23T14:48:37.071Z,42.70
2022-12-23T14:51:25.582Z,46.13
2022-12-23T14:53:52.587Z,44.60
2022-12-23T14:56:19.867Z,50.80
2022-12-23T14:59:05.110Z,47.20
2022-12-23T15:01:42.563Z,39.47
2022-12-23T15:04:19.445Z,40.73
2022-12-23T15:07:05.584Z,36.47
2022-12-23T15:09:39.739Z,36.93
2022-12-23T15:12:14.766Z,42.87
2022-12-23T15:14:49.026Z,40.77
2022-12-23T15:17:27.188Z,42.50
2022-12-23T15:20:04.892Z,42.67
2022-12-23T15:22:32.893Z,42.13
2022-12-23T15:24:59.968Z,39.30
2022-12-23T15:27:30.552Z,36.73
2022-12-23T15:29:58.249Z,38.60
2022-12-23T15:32:26.731Z,38.17
2022-12-23T15:35:00.112Z,42.77
2022-12-23T15:37:30.455Z,38.97
2022-12-23T15:40:06.148Z,38.97
2022-12-23T15:42:38.439Z,41.77
2022-12-23T15:45:32.200Z,38.70
2022-12-23T15:47:59.586Z,39.60
2022-12-23T15:50:28.124Z,35.47
2022-12-23T15:53:01.710Z,35.13
2022-12-23T15:55:32.013Z,40.67
2022-12-23T15:58:00.450Z,43.33
2022-12-23T16:00:53.771Z,37.77
2022-12-23T16:03:26.601Z,36.70
2022-12-23T16:05:53.904Z,37.93
2022-12-23T16:08:28.966Z,36.13
2022-12-23T16:11:14.900Z,35.63
2022-12-23T16:13:59.013Z,37.03
2022-12-23T16:16:31.656Z,39.67
2022-12-23T16:18:59.220Z,39.90
2022-12-23T16:21:31.576Z,34.03
2022-12-23T16:23:59.632Z,36.73
2022-12-23T16:26:27.027Z,37.50
2022-12-23T16:28:58.534Z,34.73
2022-12-23T16:31:26.003Z,33.83
2022-12-23T16:34:01.086Z,36.43
2022-12-23T16:36:28.095Z,35.63
2022-12-23T16:39:06.558Z,36.67
2022-12-23T16:41:34.475Z,40.10
2022-12-23T16:44:02.449Z,40.47
2022-12-23T16:46:36.429Z,37.07
2022-12-23T16:49:10.876Z,35.07
2022-12-23T16:51:39.592Z,36.50
2022-12-23T16:54:06.884Z,36.10
2022-12-23T16:56:36.640Z,36.43
2022-12-23T16:59:04.827Z,36.43
2022-12-23T17:01:35.154Z,42.20
2022-12-23T17:04:02.485Z,44.03
2022-12-23T17:06:30.758Z,37.30
2022-12-23T17:08:58.049Z,38.47
2022-12-23T17:11:28.043Z,37.23
2022-12-23T17:14:01.404Z,35.73
2022-12-23T17:16:31.161Z,38.07
2022-12-23T17:18:58.773Z,40.50
2022-12-23T17:21:36.749Z,37.63
2022-12-23T17:24:11.402Z,38.90
2022-12-23T17:26:38.435Z,36.57
2022-12-23T17:29:06.746Z,36.83
2022-12-23T17:31:34.829Z,36.33
2022-12-23T17:34:02.917Z,36.67
2022-12-23T17:36:30.293Z,35.43
2022-12-23T17:38:57.646Z,34.40
2022-12-23T17:41:29.918Z,35.97
2022-12-23T17:43:58.172Z,34.03
2022-12-23T17:46:26.278Z,38.17
2022-12-23T17:48:53.542Z,37.63
2022-12-23T17:51:22.773Z,33.87
2022-12-23T17:53:56.917Z,37.63
2022-12-23T17:56:26.632Z,37.43
2022-12-23T17:58:53.895Z,40.53
2022-12-23T18:01:32.802Z,35.77
2022-12-23T18:04:00.394Z,40.87
2022-12-23T18:06:29.073Z,33.63
2022-12-23T18:08:59.570Z,31.63
2022-12-23T18:11:43.946Z,35.20
2022-12-23T18:14:19.823Z,34.87
2022-12-23T18:16:47.006Z,36.00
2022-12-23T18:19:19.435Z,34.27
2022-12-23T18:21:47.395Z,34.00
2022-12-23T18:24:15.069Z,35.10
2022-12-23T18:26:42.126Z,34.23
2022-12-23T18:29:09.300Z,36.33
2022-12-23T18:31:37.352Z,33.63
2022-12-23T18:34:04.665Z,31.73
2022-12-23T18:36:35.837Z,31.50
2022-12-23T18:39:03.129Z,32.00
2022-12-23T18:41:30.141Z,33.67
2022-12-23T18:43:57.415Z,32.47
2022-12-23T18:46:24.437Z,33.93
2022-12-23T18:48:51.817Z,31.13
2022-12-23T18:51:20.986Z,31.97
2022-12-23T18:53:48.596Z,33.00
2022-12-23T18:56:19.316Z,31.43
2022-12-23T18:58:46.776Z,34.57
2022-12-23T19:01:15.543Z,30.20
2022-12-23T19:03:43.690Z,32.90
2022-12-23T19:06:13.551Z,33.53
2022-12-23T19:08:41.524Z,31.47
2022-12-23T19:11:18.324Z,32.10
2022-12-23T19:13:46.440Z,35.57
2022-12-23T19:16:19.325Z,29.80
2022-12-23T19:18:48.893Z,35.90
2022-12-23T19:21:17.491Z,33.57
2022-12-23T19:23:44.841Z,32.60
2022-12-23T19:26:14.003Z,32.80
2022-12-23T19:28:41.887Z,31.53
2022-12-23T19:31:13.169Z,27.63
2022-12-23T19:33:41.689Z,28.30
2022-12-23T19:36:10.892Z,27.63
2022-12-23T19:38:38.579Z,30.40
2022-12-23T19:41:07.300Z,27.03
2022-12-23T19:43:36.317Z,29.13
2022-12-23T19:46:06.377Z,27.30
2022-12-23T19:48:34.321Z,27.47
2022-12-23T19:51:12.053Z,29.10
2022-12-23T19:53:41.245Z,26.87
2022-12-23T19:56:13.664Z,28.77
2022-12-23T19:58:42.301Z,31.23
2022-12-23T20:01:22.812Z,30.73
2022-12-23T20:03:51.275Z,30.20
2022-12-23T20:06:21.100Z,26.47
2022-12-23T20:08:48.962Z,31.10
2022-12-23T20:11:25.733Z,29.87
2022-12-23T20:13:55.321Z,27.27
2022-12-23T20:16:22.859Z,30.43
2022-12-23T20:18:50.321Z,33.23
2022-12-23T20:21:17.697Z,27.13
2022-12-23T20:23:45.049Z,29.67
2022-12-23T20:26:13.922Z,33.53
2022-12-23T20:28:41.551Z,29.80
2022-12-23T20:31:20.548Z,33.03
2022-12-23T20:33:48.995Z,29.73
2022-12-23T20:36:22.432Z,32.53
2022-12-23T20:38:52.087Z,34.13
2022-12-23T20:41:21.942Z,33.60
2022-12-23T20:44:23.343Z,37.10
2022-12-23T20:46:36.217Z,37.37
2022-12-23T20:49:03.583Z,33.97
2022-12-23T20:51:30.713Z,33.57
2022-12-23T20:54:01.346Z,34.10
2022-12-23T20:56:30.330Z,32.90
2022-12-23T20:58:59.284Z,34.60
2022-12-23T21:01:28.481Z,35.07
2022-12-23T21:03:57.221Z,33.73
2022-12-23T21:06:25.129Z,36.23
2022-12-23T21:08:52.697Z,34.40
2022-12-23T21:11:19.770Z,35.13
2022-12-23T21:13:48.607Z,37.83
2022-12-23T21:16:16.381Z,40.47
2022-12-23T21:18:45.849Z,38.47
2022-12-23T21:21:13.092Z,37.50
2022-12-23T21:23:42.049Z,35.10
2022-12-23T21:26:17.791Z,34.97
2022-12-23T21:28:46.987Z,37.77
2022-12-23T21:31:16.741Z,32.07
2022-12-23T21:33:45.977Z,35.70
2022-12-23T21:36:19.738Z,38.77
2022-12-23T21:38:48.971Z,37.83
2022-12-23T21:41:19.788Z,41.07
2022-12-23T21:43:47.769Z,39.60
2022-12-23T21:46:16.933Z,43.00
2022-12-23T21:48:44.683Z,44.67
2022-12-23T21:51:22.931Z,39.60
2022-12-23T21:53:52.614Z,42.07
2022-12-23T21:56:25.359Z,38.03
2022-12-23T21:59:06.945Z,39.23
2022-12-23T22:01:34.669Z,42.60
2022-12-23T22:04:02.165Z,36.70
2022-12-23T22:06:32.101Z,39.60
2022-12-23T22:08:59.529Z,42.67
2022-12-23T22:11:29.248Z,39.23
2022-12-23T22:13:58.072Z,45.33
2022-12-23T22:16:26.621Z,41.30
2022-12-23T22:18:55.131Z,40.67
2022-12-23T22:21:24.097Z,38.30
2022-12-23T22:23:53.004Z,43.20
2022-12-23T22:26:25.731Z,42.10
2022-12-23T22:28:58.211Z,42.00
2022-12-23T22:31:39.943Z,42.87
2022-12-23T22:34:08.932Z,42.50
2022-12-23T22:36:36.263Z,40.73
2022-12-23T22:39:03.742Z,46.13
2022-12-23T22:41:31.129Z,42.50
2022-12-23T22:43:59.382Z,47.60
2022-12-23T22:46:26.948Z,41.37
2022-12-23T22:48:54.557Z,38.87
2022-12-23T22:51:24.334Z,43.87
2022-12-23T22:53:52.023Z,40.03
2022-12-23T22:56:21.066Z,46.53
2022-12-23T22:58:49.713Z,40.83
2022-12-23T23:01:24.180Z,39.50
2022-12-23T23:03:57.216Z,40.97
2022-12-23T23:06:29.138Z,39.50
2022-12-23T23:08:57.115Z,39.93
2022-12-23T23:11:25.250Z,42.80
2022-12-23T23:13:52.953Z,48.10
2022-12-23T23:16:20.109Z,39.03
2022-12-23T23:18:47.484Z,42.43
2022-12-23T23:21:14.944Z,44.03
2022-12-23T23:23:42.179Z,42.83
2022-12-23T23:26:10.363Z,47.97
2022-12-23T23:28:39.383Z,38.63
2022-12-23T23:33:54.953Z,47.67
2022-12-23T23:36:21.941Z,43.73
2022-12-23T23:38:49.228Z,44.17
2022-12-23T23:41:20.633Z,41.60
2022-12-23T23:43:50.660Z,45.70
2022-12-23T23:46:17.830Z,43.67
2022-12-23T23:48:45.155Z,42.10
2022-12-23T23:51:12.858Z,50.10
2022-12-23T23:53:40.809Z,45.73
2022-12-23T23:56:09.041Z,45.43
2022-12-23T23:58:37.666Z,47.78
